createdAt,value
2019-04-03T00:04:04.963Z,9.43
2019-04-03T00:06:54.772Z,9.57
2019-04-03T00:09:24.103Z,9.90
2019-04-03T00:12:12.824Z,9.37
2019-04-03T00:14:43.140Z,10.03
2019-04-03T00:17:42.058Z,8.93
2019-04-03T00:20:11.519Z,9.10
2019-04-03T00:22:40.846Z,9.23
2019-04-03T00:25:22.835Z,9.20
2019-04-03T00:28:04.120Z,8.47
2019-04-03T00:30:33.457Z,9.20
2019-04-03T00:33:02.784Z,8.97
2019-04-03T00:35:44.580Z,7.53
2019-04-03T00:38:13.901Z,7.73
2019-04-03T00:41:02.580Z,7.10
2019-04-03T00:43:31.910Z,7.30
2019-04-03T00:46:20.503Z,8.20
2019-04-03T00:48:49.827Z,6.60
2019-04-03T00:51:31.898Z,6.97
2019-04-03T00:54:01.222Z,6.70
2019-04-03T00:56:36.401Z,7.40
2019-04-03T00:59:05.731Z,7.03
2019-04-03T01:01:47.411Z,8.80
2019-04-03T01:04:29.099Z,9.90
2019-04-03T01:07:10.685Z,9.77
2019-04-03T01:09:52.000Z,10.13
2019-04-03T01:12:21.507Z,6.80
2019-04-03T01:14:50.836Z,6.20
2019-04-03T01:17:34.137Z,6.10
2019-04-03T01:20:15.455Z,6.97
2019-04-03T01:22:44.805Z,5.70
2019-04-03T01:25:33.453Z,5.90
2019-04-03T01:28:03.089Z,6.33
2019-04-03T01:30:58.585Z,6.10
2019-04-03T01:33:39.738Z,6.27
2019-04-03T01:36:09.062Z,5.97
2019-04-03T01:38:57.747Z,6.77
2019-04-03T01:41:39.269Z,6.30
2019-04-03T01:44:20.601Z,6.70
2019-04-03T01:46:50.061Z,6.77
2019-04-03T01:49:19.332Z,6.70
2019-04-03T01:51:48.659Z,6.60
2019-04-03T01:54:17.988Z,7.13
2019-04-03T01:56:47.321Z,6.40
2019-04-03T01:59:16.878Z,7.20
2019-04-03T02:01:58.505Z,7.33
2019-04-03T02:04:27.966Z,7.47
2019-04-03T02:06:57.231Z,6.80
2019-04-03T02:09:26.561Z,7.00
2019-04-03T02:12:15.368Z,7.57
2019-04-03T02:14:44.626Z,6.97
2019-04-03T02:17:33.293Z,6.60
2019-04-03T02:20:14.914Z,7.20
2019-04-03T02:22:45.872Z,7.73
2019-04-03T02:25:34.542Z,7.17
2019-04-03T02:28:16.562Z,7.50
2019-04-03T02:30:47.173Z,9.30
2019-04-03T02:33:22.672Z,7.70
2019-04-03T02:36:04.604Z,6.83
2019-04-03T02:38:34.256Z,7.60
2019-04-03T02:41:15.840Z,8.40
2019-04-03T02:43:59.548Z,8.10
2019-04-03T02:46:21.778Z,7.97
2019-04-03T02:48:52.746Z,8.47
2019-04-03T02:51:22.203Z,8.20
2019-04-03T02:56:51.999Z,9.30
2019-04-03T02:59:33.588Z,8.63
2019-04-03T03:02:02.926Z,8.87
2019-04-03T03:07:58.469Z,8.83
2019-04-03T03:13:33.614Z,8.03
2019-04-03T03:16:10.771Z,7.87
2019-04-03T03:18:42.006Z,7.20
2019-04-03T03:21:44.719Z,7.40
2019-04-03T03:24:14.834Z,7.47
2019-04-03T03:33:26.795Z,7.10
2019-04-03T03:35:57.866Z,6.70
2019-04-03T03:38:33.621Z,7.27
2019-04-03T03:41:42.860Z,6.70
2019-04-03T03:50:26.716Z,8.10
2019-04-03T03:59:42.738Z,8.00
2019-04-03T04:05:14.277Z,8.50
2019-04-03T04:08:45.225Z,8.77
2019-04-03T04:11:20.933Z,9.37
2019-04-03T04:14:09.693Z,9.53
2019-04-03T04:23:14.567Z,10.10
2019-04-03T04:25:44.630Z,9.60
2019-04-03T04:28:25.126Z,10.00
2019-04-03T04:30:54.525Z,10.60
2019-04-03T04:33:24.094Z,9.60
2019-04-03T04:36:04.330Z,10.50
2019-04-03T04:38:33.677Z,10.00
2019-04-03T04:41:22.129Z,10.70
2019-04-03T04:43:51.468Z,9.30
2019-04-03T04:46:20.809Z,10.50
2019-04-03T04:48:51.669Z,8.90
2019-04-03T04:51:40.294Z,11.27
2019-04-03T04:54:30.527Z,11.00
2019-04-03T05:00:18.456Z,12.20
2019-04-03T05:02:50.369Z,11.50
2019-04-03T05:05:26.422Z,10.70
2019-04-03T05:08:01.940Z,11.87
2019-04-03T05:10:41.146Z,12.23
2019-04-03T05:13:10.513Z,11.90
2019-04-03T05:15:39.890Z,10.50
2019-04-03T05:18:09.232Z,11.93
2019-04-03T05:20:38.573Z,11.43
2019-04-03T05:23:07.917Z,12.30
2019-04-03T05:25:37.274Z,12.43
2019-04-03T05:28:06.931Z,12.37
2019-04-03T05:30:37.760Z,11.77
2019-04-03T05:33:52.844Z,11.87
2019-04-03T05:36:22.180Z,12.17
2019-04-03T05:38:53.443Z,13.80
2019-04-03T05:41:28.662Z,14.57
2019-04-03T05:44:04.477Z,13.37
2019-04-03T05:46:44.953Z,13.67
2019-04-03T05:49:14.326Z,12.73
2019-04-03T05:51:43.638Z,12.73
2019-04-03T05:54:14.655Z,12.80
2019-04-03T05:57:03.111Z,11.80
2019-04-03T05:59:33.465Z,12.97
2019-04-03T06:02:22.606Z,11.90
2019-04-03T06:04:51.991Z,12.83
2019-04-03T06:07:21.357Z,11.60
2019-04-03T06:09:53.108Z,12.63
2019-04-03T06:12:40.825Z,11.80
2019-04-03T06:15:34.966Z,12.20
2019-04-03T06:18:11.576Z,12.10
2019-04-03T06:20:42.547Z,12.17
2019-04-03T06:23:31.043Z,11.70
2019-04-03T06:26:02.094Z,11.17
2019-04-03T06:28:50.702Z,11.90
2019-04-03T06:31:20.056Z,12.00
2019-04-03T06:33:51.142Z,11.57
2019-04-03T06:36:26.012Z,12.10
2019-04-03T06:38:56.449Z,10.53
2019-04-03T06:41:31.883Z,10.53
2019-04-03T06:44:01.222Z,11.40
2019-04-03T06:46:30.560Z,10.70
2019-04-03T06:48:59.925Z,11.00
2019-04-03T06:51:29.615Z,12.03
2019-04-03T06:53:59.968Z,11.37
2019-04-03T06:56:35.897Z,11.37
2019-04-03T06:59:05.184Z,11.70
2019-04-03T07:01:53.859Z,13.90
2019-04-03T07:04:23.221Z,12.00
2019-04-03T07:06:55.366Z,11.90
2019-04-03T07:09:35.274Z,12.90
2019-04-03T07:12:05.140Z,12.20
2019-04-03T07:14:34.549Z,12.07
2019-04-03T07:17:05.804Z,12.60
2019-04-03T07:20:13.426Z,12.17
2019-04-03T07:22:37.310Z,12.20
2019-04-03T07:28:30.177Z,11.07
2019-04-03T07:31:17.520Z,12.70
2019-04-03T07:33:47.259Z,11.40
2019-04-03T07:36:16.757Z,11.57
2019-04-03T07:39:12.095Z,13.57
2019-04-03T07:41:41.710Z,11.73
2019-04-03T07:44:50.879Z,11.40
2019-04-03T07:47:20.427Z,12.20
2019-04-03T07:50:11.640Z,12.00
2019-04-03T07:52:48.030Z,13.00
2019-04-03T07:55:24.285Z,13.37
2019-04-03T07:57:59.892Z,11.60
2019-04-03T08:00:38.361Z,14.00
2019-04-03T08:03:12.633Z,12.80
2019-04-03T08:05:41.981Z,13.00
2019-04-03T08:08:11.304Z,11.60
2019-04-03T08:10:40.636Z,12.33
2019-04-03T08:13:10.308Z,12.77
2019-04-03T08:15:40.182Z,11.27
2019-04-03T08:18:16.652Z,11.37
2019-04-03T08:20:51.196Z,11.10
2019-04-03T08:23:32.492Z,10.23
2019-04-03T08:26:01.849Z,10.17
2019-04-03T08:28:50.471Z,10.00
2019-04-03T08:31:19.799Z,9.93
2019-04-03T08:34:18.336Z,11.80
2019-04-03T08:36:51.914Z,10.57
2019-04-03T08:39:49.180Z,11.10
2019-04-03T08:42:23.420Z,10.07
2019-04-03T08:44:52.764Z,10.67
2019-04-03T08:47:36.840Z,9.20
2019-04-03T08:50:45.602Z,10.10
2019-04-03T08:53:34.273Z,10.23
2019-04-03T08:56:17.111Z,9.27
2019-04-03T08:58:47.103Z,9.23
2019-04-03T09:01:23.279Z,8.70
2019-04-03T09:04:12.067Z,8.60
2019-04-03T09:06:41.406Z,8.00
2019-04-03T09:09:30.538Z,8.57
2019-04-03T09:12:19.212Z,8.57
2019-04-03T09:14:48.556Z,7.97
2019-04-03T09:17:30.094Z,8.00
2019-04-03T09:19:59.439Z,8.30
2019-04-03T09:22:34.446Z,8.87
2019-04-03T09:25:43.841Z,8.83
2019-04-03T09:28:25.183Z,7.70
2019-04-03T09:30:54.504Z,6.63
2019-04-03T09:33:25.216Z,7.00
2019-04-03T09:36:26.070Z,7.90
2019-04-03T09:39:11.128Z,6.63
2019-04-03T09:41:40.986Z,7.27
2019-04-03T09:44:30.985Z,7.00
2019-04-03T09:47:02.952Z,7.00
2019-04-03T09:50:09.898Z,7.33
2019-04-03T09:52:47.659Z,6.80
2019-04-03T09:55:35.924Z,7.30
2019-04-03T09:58:04.205Z,8.27
2019-04-03T10:00:41.334Z,8.00
2019-04-03T10:03:22.494Z,8.17
2019-04-03T10:06:00.859Z,6.30
2019-04-03T10:09:00.194Z,6.97
2019-04-03T10:11:31.306Z,7.00
2019-04-03T10:14:00.777Z,8.13
2019-04-03T10:16:40.923Z,6.90
2019-04-03T10:19:12.441Z,6.87
2019-04-03T10:22:00.790Z,7.03
2019-04-03T10:24:40.781Z,6.93
2019-04-03T10:27:11.091Z,6.30
2019-04-03T10:30:00.471Z,6.60
2019-04-03T10:32:30.203Z,7.00
2019-04-03T10:35:19.995Z,7.00
2019-04-03T10:37:49.334Z,6.60
2019-04-03T10:40:18.881Z,7.23
2019-04-03T10:42:48.277Z,7.10
2019-04-03T10:48:19.120Z,6.40
2019-04-03T10:50:48.413Z,7.20
2019-04-03T10:53:19.845Z,7.50
2019-04-03T10:55:54.876Z,6.67
2019-04-03T10:58:30.803Z,5.50
2019-04-03T11:01:00.494Z,6.43
2019-04-03T11:03:29.819Z,6.17
2019-04-03T11:05:59.405Z,6.27
2019-04-03T11:08:28.737Z,5.70
2019-04-03T11:10:58.872Z,6.57
2019-04-03T11:13:48.161Z,6.23
2019-04-03T11:16:18.111Z,6.43
2019-04-03T11:19:08.001Z,5.87
2019-04-03T11:21:44.983Z,7.37
2019-04-03T11:24:20.617Z,7.17
2019-04-03T11:26:51.760Z,6.90
2019-04-03T11:29:26.762Z,7.53
2019-04-03T11:31:56.095Z,7.63
2019-04-03T11:34:25.766Z,7.10
2019-04-03T11:37:02.113Z,8.00
2019-04-03T11:39:44.067Z,8.63
2019-04-03T11:42:24.883Z,8.33
2019-04-03T11:44:55.539Z,7.27
2019-04-03T11:47:24.871Z,8.67
2019-04-03T11:49:54.590Z,8.43
2019-04-03T11:52:43.278Z,8.60
2019-04-03T11:55:13.400Z,8.70
2019-04-03T11:57:50.000Z,8.57
2019-04-03T12:03:26.736Z,8.50
2019-04-03T12:06:07.208Z,10.77
2019-04-03T12:08:36.552Z,8.97
2019-04-03T12:11:07.045Z,8.80
2019-04-03T12:13:44.420Z,9.00
2019-04-03T12:16:18.855Z,11.57
2019-04-03T12:18:48.451Z,14.47
2019-04-03T12:21:18.899Z,15.60
2019-04-03T12:24:07.194Z,18.87
2019-04-03T12:26:36.674Z,20.27
2019-04-03T12:29:13.728Z,22.47
2019-04-03T12:32:10.260Z,23.13
2019-04-03T12:35:02.217Z,23.70
2019-04-03T12:37:44.551Z,24.53
2019-04-03T12:40:14.794Z,23.37
2019-04-03T12:42:54.661Z,23.17
2019-04-03T12:45:25.733Z,21.30
2019-04-03T12:48:16.875Z,24.00
2019-04-03T12:51:10.189Z,22.20
2019-04-03T12:53:39.532Z,22.23
2019-04-03T12:56:09.171Z,20.40
2019-04-03T12:58:57.844Z,20.10
2019-04-03T13:01:39.038Z,20.00
2019-04-03T13:04:21.126Z,20.10
2019-04-03T13:06:50.988Z,19.17
2019-04-03T13:09:27.446Z,18.27
2019-04-03T13:15:04.596Z,13.73
2019-04-03T13:17:53.364Z,12.57
2019-04-03T13:20:43.079Z,13.47
2019-04-03T13:23:14.374Z,12.60
2019-04-03T13:26:03.155Z,11.37
2019-04-03T13:28:40.389Z,10.97
2019-04-03T13:31:20.105Z,11.13
2019-04-03T13:34:11.201Z,10.30
2019-04-03T13:36:59.001Z,10.07
2019-04-03T13:39:28.749Z,10.57
2019-04-03T13:41:58.397Z,11.20
2019-04-03T13:44:38.600Z,10.30
2019-04-03T13:47:09.117Z,9.43
2019-04-03T13:49:44.266Z,9.60
2019-04-03T13:52:13.578Z,9.97
2019-04-03T13:54:45.213Z,10.20
2019-04-03T13:57:38.768Z,9.10
2019-04-03T14:00:59.584Z,8.90
2019-04-03T14:03:38.459Z,9.27
2019-04-03T14:06:14.836Z,8.90
2019-04-03T14:08:45.335Z,9.20
2019-04-03T14:11:46.784Z,9.20
2019-04-03T14:14:16.154Z,9.53
2019-04-03T14:17:06.118Z,9.83
2019-04-03T14:19:55.128Z,10.87
2019-04-03T14:22:24.392Z,11.43
2019-04-03T14:24:53.967Z,12.20
2019-04-03T14:27:31.273Z,12.40
2019-04-03T14:30:26.095Z,13.77
2019-04-03T14:32:55.438Z,15.43
2019-04-03T14:35:45.933Z,15.90
2019-04-03T14:38:00.971Z,16.40
2019-04-03T14:40:35.467Z,18.53
2019-04-03T14:43:05.200Z,16.90
2019-04-03T14:45:43.183Z,17.77
2019-04-03T14:48:18.342Z,17.87
2019-04-03T14:50:47.659Z,17.00
2019-04-03T14:53:29.521Z,15.07
2019-04-03T14:56:00.353Z,13.63
2019-04-03T14:58:39.814Z,9.57
2019-04-03T15:01:09.219Z,9.73
2019-04-03T15:03:38.552Z,7.83
2019-04-03T15:06:08.365Z,6.70
2019-04-03T15:08:58.133Z,5.07
2019-04-03T15:11:27.654Z,4.77
2019-04-03T15:13:57.405Z,4.30
2019-04-03T15:16:33.564Z,4.83
2019-04-03T15:19:02.893Z,6.00
2019-04-03T15:21:32.285Z,6.80
2019-04-03T15:24:02.128Z,7.50
2019-04-03T15:26:38.464Z,9.53
2019-04-03T15:29:14.572Z,9.23
2019-04-03T15:31:45.823Z,9.93
2019-04-03T15:34:34.367Z,10.73
2019-04-03T15:37:04.254Z,9.43
2019-04-03T15:39:57.469Z,7.87
2019-04-03T15:42:30.516Z,8.00
2019-04-03T15:48:28.335Z,7.37
2019-04-03T15:50:57.728Z,6.53
2019-04-03T15:53:29.078Z,7.47
2019-04-03T15:56:11.464Z,5.80
2019-04-03T15:58:51.420Z,5.60
2019-04-03T16:01:31.067Z,4.90
2019-04-03T16:04:07.231Z,4.70
2019-04-03T16:06:37.219Z,4.60
2019-04-03T16:09:13.354Z,4.53
2019-04-03T16:11:49.374Z,4.90
2019-04-03T16:14:20.426Z,4.97
2019-04-03T16:17:09.162Z,6.07
2019-04-03T16:19:38.598Z,5.47
2019-04-03T16:22:08.170Z,5.67
2019-04-03T16:24:45.133Z,6.07
2019-04-03T16:27:21.169Z,5.80
2019-04-03T16:29:50.762Z,5.40
2019-04-03T16:32:41.275Z,5.50
2019-04-03T16:35:17.519Z,4.90
2019-04-03T16:37:49.659Z,5.10
2019-04-03T16:40:38.801Z,4.83
2019-04-03T16:43:13.945Z,5.00
2019-04-03T16:45:50.048Z,4.87
2019-04-03T16:48:25.625Z,4.90
2019-04-03T16:50:55.584Z,4.53
2019-04-03T16:53:45.386Z,4.97
2019-04-03T16:56:16.009Z,4.33
2019-04-03T16:59:07.319Z,4.28
2019-04-03T17:01:44.439Z,4.57
2019-04-03T17:04:59.698Z,4.10
2019-04-03T17:07:37.529Z,4.10
2019-04-03T17:10:52.434Z,4.00
2019-04-03T17:13:22.300Z,4.77
2019-04-03T17:16:14.500Z,4.07
2019-04-03T17:18:49.354Z,4.50
2019-04-03T17:21:27.310Z,4.67
2019-04-03T17:24:01.617Z,4.92
2019-04-03T17:26:31.191Z,4.60
2019-04-03T17:29:05.042Z,4.87
2019-04-03T17:34:19.629Z,4.90
2019-04-03T17:37:09.992Z,5.17
2019-04-03T17:39:46.526Z,5.67
2019-04-03T17:42:16.182Z,5.20
2019-04-03T17:44:45.753Z,5.63
2019-04-03T17:47:42.202Z,4.55
2019-04-03T17:50:51.699Z,4.90
2019-04-03T17:53:21.260Z,5.00
2019-04-03T17:55:50.835Z,4.80
2019-04-03T17:58:22.046Z,5.20
2019-04-03T18:00:52.157Z,4.63
2019-04-03T18:03:40.981Z,6.40
2019-04-03T18:06:10.556Z,5.60
2019-04-03T18:08:41.759Z,5.95
2019-04-03T18:11:13.136Z,6.43
2019-04-03T18:14:01.703Z,6.30
2019-04-03T18:16:31.279Z,5.90
2019-04-03T18:19:20.019Z,6.40
2019-04-03T18:21:49.746Z,6.83
2019-04-03T18:24:19.407Z,6.63
2019-04-03T18:26:49.464Z,6.43
2019-04-03T18:29:19.032Z,6.97
2019-04-03T18:31:48.816Z,6.73
2019-04-03T18:34:19.825Z,6.50
2019-04-03T18:36:55.439Z,6.63
2019-04-03T18:39:24.993Z,6.57
2019-04-03T18:41:54.580Z,6.30
2019-04-03T18:44:26.028Z,7.07
2019-04-03T18:47:14.531Z,6.90
2019-04-03T18:49:44.095Z,7.50
2019-04-03T18:52:19.567Z,7.40
2019-04-03T18:54:49.327Z,9.20
2019-04-03T18:57:18.899Z,7.97
2019-04-03T18:59:48.479Z,7.77
2019-04-03T19:02:18.183Z,8.00
2019-04-03T19:05:26.222Z,7.90
2019-04-03T19:07:55.922Z,7.80
2019-04-03T19:10:25.552Z,8.10
2019-04-03T19:12:55.130Z,8.93
2019-04-03T19:15:43.803Z,8.30
2019-04-03T19:18:19.548Z,8.60
2019-04-03T19:20:50.091Z,8.30
2019-04-03T19:23:19.656Z,8.10
2019-04-03T19:25:49.229Z,8.03
2019-04-03T19:28:18.822Z,7.13
2019-04-03T19:30:50.003Z,7.80
2019-04-03T19:33:19.580Z,8.03
2019-04-03T19:35:49.170Z,7.20
2019-04-03T19:38:18.715Z,7.43
2019-04-03T19:40:48.290Z,7.00
2019-04-03T19:43:17.932Z,6.30
2019-04-03T19:45:47.654Z,6.50
2019-04-03T19:48:36.377Z,6.47
2019-04-03T19:51:25.644Z,5.33
2019-04-03T19:53:59.643Z,5.43
2019-04-03T19:56:32.460Z,5.13
2019-04-03T19:59:04.715Z,5.47
2019-04-03T20:01:52.397Z,4.47
2019-04-03T20:04:21.969Z,4.97
2019-04-03T20:06:52.903Z,5.10
2019-04-03T20:09:28.219Z,5.83
2019-04-03T20:11:57.880Z,4.90
2019-04-03T20:14:27.509Z,5.60
2019-04-03T20:16:58.563Z,5.80
2019-04-03T20:19:47.593Z,4.90
2019-04-03T20:22:17.279Z,5.10
2019-04-03T20:24:59.225Z,5.40
2019-04-03T20:27:23.787Z,4.67
2019-04-03T20:29:53.895Z,4.47
2019-04-03T20:32:23.571Z,4.57
2019-04-03T20:34:53.253Z,4.40
2019-04-03T20:37:25.998Z,4.50
2019-04-03T20:40:00.602Z,4.57
2019-04-03T20:42:37.160Z,4.90
2019-04-03T20:48:40.718Z,4.30
2019-04-03T20:51:10.289Z,4.33
2019-04-03T20:53:41.469Z,4.77
2019-04-03T20:56:11.097Z,4.13
2019-04-03T20:58:41.001Z,4.07
2019-04-03T21:01:17.491Z,4.57
2019-04-03T21:03:47.038Z,4.87
2019-04-03T21:06:16.658Z,4.62
2019-04-03T21:08:46.182Z,4.43
2019-04-03T21:11:15.647Z,4.53
2019-04-03T21:16:48.042Z,4.27
2019-04-03T21:19:27.114Z,4.50
2019-04-03T21:21:57.671Z,4.50
2019-04-03T21:24:46.595Z,4.00
2019-04-03T21:27:15.926Z,4.00
2019-04-03T21:29:45.562Z,4.17
2019-04-03T21:32:14.891Z,4.00
2019-04-03T21:34:44.214Z,4.27
2019-04-03T21:37:14.084Z,4.23
2019-04-03T21:43:12.651Z,4.17
2019-04-03T21:45:42.097Z,4.30
2019-04-03T21:48:13.553Z,4.63
2019-04-03T21:51:01.567Z,4.30
2019-04-03T21:53:30.893Z,4.47
2019-04-03T21:56:02.557Z,4.20
2019-04-03T21:58:37.867Z,4.87
2019-04-03T22:01:32.250Z,5.10
2019-04-03T22:04:01.694Z,4.47
2019-04-03T22:06:31.066Z,4.83
2019-04-03T22:09:00.763Z,3.97
2019-04-03T22:11:50.510Z,4.10
2019-04-03T22:14:19.838Z,4.30
2019-04-03T22:16:50.790Z,4.07
2019-04-03T22:19:27.405Z,4.30
2019-04-03T22:22:06.057Z,4.10
2019-04-03T22:24:37.435Z,3.33
2019-04-03T22:27:25.565Z,4.43
2019-04-03T22:29:54.846Z,3.73
2019-04-03T22:32:24.817Z,3.50
2019-04-03T22:35:13.250Z,4.03
2019-04-03T22:37:42.578Z,3.87
2019-04-03T22:40:11.956Z,4.23
2019-04-03T22:42:41.287Z,4.17
2019-04-03T22:45:10.674Z,4.00
2019-04-03T22:47:40.005Z,4.17
2019-04-03T22:53:29.598Z,4.17
2019-04-03T22:55:58.927Z,4.20
2019-04-03T22:58:28.259Z,4.60
2019-04-03T23:00:59.299Z,4.30
2019-04-03T23:03:38.169Z,3.93
2019-04-03T23:06:07.485Z,4.20
2019-04-03T23:08:36.817Z,4.73
2019-04-03T23:11:06.136Z,4.70
2019-04-03T23:13:35.657Z,4.10
2019-04-03T23:16:31.207Z,4.20
2019-04-03T23:19:00.541Z,4.20
2019-04-03T23:21:29.863Z,4.70
2019-04-03T23:23:59.264Z,4.43
2019-04-03T23:26:31.789Z,4.27
2019-04-03T23:29:05.877Z,4.90
2019-04-03T23:31:46.022Z,4.60
2019-04-03T23:34:18.705Z,4.73
2019-04-03T23:37:05.474Z,4.17
2019-04-03T23:39:34.886Z,4.97
2019-04-03T23:42:04.960Z,5.10
2019-04-03T23:44:42.139Z,5.07
2019-04-03T23:47:17.085Z,4.60
2019-04-03T23:49:53.673Z,5.07
2019-04-03T23:52:30.623Z,4.60
2019-04-03T23:55:19.315Z,4.63
2019-04-03T23:57:48.705Z,5.10
